Allendale, Massachusetts
Current Conditions -  °F | °C
As of 6:54 AM on Sunday 21 Dec 2014 (Local Time) from KPSF Reporting Station
Overcast Overcast  
Wind Chill: -3°   Ceiling: 2300
Heat Index: -3°   Visibility: 8mi
Dew Point: -4°   Wind: 0mph
Humidity: 92%   Direction: NA
Pressure: 30.23"   Gusts: NA
Location:  42.4608°N, 73.282°W
Report Text: KPSF 211154Z AUTO 00000KT 8SM OVC023 M03/M04 A3023 RMK AO2 UPB13E22SNE11 SLP254 P0000 60000 T10281039 11028 21033 53007
Loading
Personal Weather Stations






























Interactive Weather Map New forecast layout! Learn more

10-Day Weather Forecast

Advertisements
Track Severe Weather on mobile